sensor_id;sensor_type;location;lat;lon;timestamp;P1;durP1;ratioP1;P2;durP2;ratioP2
11048;SDS011;5577;42.706;23.160;2023-06-22T00:01:10;11.53;;;10.33;;
11048;SDS011;5577;42.706;23.160;2023-06-22T00:03:54;11.33;;;10.23;;
11048;SDS011;5577;42.706;23.160;2023-06-22T00:06:38;11.93;;;10.20;;
11048;SDS011;5577;42.706;23.160;2023-06-22T00:09:22;11.03;;;9.90;;
11048;SDS011;5577;42.706;23.160;2023-06-22T00:12:06;11.77;;;10.43;;
11048;SDS011;5577;42.706;23.160;2023-06-22T00:14:50;10.67;;;9.67;;
11048;SDS011;5577;42.706;23.160;2023-06-22T00:17:34;12.60;;;10.30;;
11048;SDS011;5577;42.706;23.160;2023-06-22T00:20:18;11.80;;;10.00;;
11048;SDS011;5577;42.706;23.160;2023-06-22T00:23:03;11.27;;;9.60;;
11048;SDS011;5577;42.706;23.160;2023-06-22T00:25:52;11.43;;;10.20;;
11048;SDS011;5577;42.706;23.160;2023-06-22T00:28:36;10.07;;;8.87;;
11048;SDS011;5577;42.706;23.160;2023-06-22T00:31:20;10.73;;;9.67;;
11048;SDS011;5577;42.706;23.160;2023-06-22T00:34:04;11.87;;;9.87;;
11048;SDS011;5577;42.706;23.160;2023-06-22T00:36:50;10.67;;;9.57;;
11048;SDS011;5577;42.706;23.160;2023-06-22T00:39:35;10.97;;;9.87;;
11048;SDS011;5577;42.706;23.160;2023-06-22T00:42:19;10.63;;;9.60;;
11048;SDS011;5577;42.706;23.160;2023-06-22T00:45:03;12.07;;;9.23;;
11048;SDS011;5577;42.706;23.160;2023-06-22T00:47:47;11.30;;;9.73;;
11048;SDS011;5577;42.706;23.160;2023-06-22T00:50:32;10.60;;;9.50;;
11048;SDS011;5577;42.706;23.160;2023-06-22T00:53:17;10.53;;;8.80;;
11048;SDS011;5577;42.706;23.160;2023-06-22T00:56:02;10.67;;;9.43;;
11048;SDS011;5577;42.706;23.160;2023-06-22T00:58:47;9.83;;;8.83;;
11048;SDS011;5577;42.706;23.160;2023-06-22T01:01:30;9.90;;;8.90;;
11048;SDS011;5577;42.706;23.160;2023-06-22T01:04:14;10.27;;;9.17;;
11048;SDS011;5577;42.706;23.160;2023-06-22T01:07:04;9.83;;;8.53;;
11048;SDS011;5577;42.706;23.160;2023-06-22T01:09:59;9.50;;;8.53;;
11048;SDS011;5577;42.706;23.160;2023-06-22T01:13:06;9.63;;;8.63;;
11048;SDS011;5577;42.706;23.160;2023-06-22T01:16:00;10.67;;;9.53;;
11048;SDS011;5577;42.706;23.160;2023-06-22T01:18:47;10.90;;;9.80;;
11048;SDS011;5577;42.706;23.160;2023-06-22T01:21:35;9.73;;;8.63;;
11048;SDS011;5577;42.706;23.160;2023-06-22T01:24:28;8.80;;;7.90;;
11048;SDS011;5577;42.706;23.160;2023-06-22T01:27:32;10.00;;;9.00;;
11048;SDS011;5577;42.706;23.160;2023-06-22T01:30:29;11.57;;;9.87;;
11048;SDS011;5577;42.706;23.160;2023-06-22T01:33:14;10.47;;;9.53;;
11048;SDS011;5577;42.706;23.160;2023-06-22T01:36:00;10.33;;;9.23;;
11048;SDS011;5577;42.706;23.160;2023-06-22T01:38:45;10.33;;;9.33;;
11048;SDS011;5577;42.706;23.160;2023-06-22T01:41:34;10.20;;;9.17;;
11048;SDS011;5577;42.706;23.160;2023-06-22T01:44:20;10.17;;;8.60;;
11048;SDS011;5577;42.706;23.160;2023-06-22T01:47:05;10.10;;;8.97;;
11048;SDS011;5577;42.706;23.160;2023-06-22T01:49:50;11.20;;;8.63;;
11048;SDS011;5577;42.706;23.160;2023-06-22T01:52:35;9.90;;;8.70;;
11048;SDS011;5577;42.706;23.160;2023-06-22T01:55:19;10.57;;;9.47;;
11048;SDS011;5577;42.706;23.160;2023-06-22T01:58:03;10.07;;;9.03;;
11048;SDS011;5577;42.706;23.160;2023-06-22T02:00:53;10.70;;;9.43;;
11048;SDS011;5577;42.706;23.160;2023-06-22T02:03:50;15.40;;;9.53;;
11048;SDS011;5577;42.706;23.160;2023-06-22T02:06:42;10.27;;;9.27;;
11048;SDS011;5577;42.706;23.160;2023-06-22T02:09:30;10.67;;;8.97;;
11048;SDS011;5577;42.706;23.160;2023-06-22T02:12:18;11.40;;;9.10;;
11048;SDS011;5577;42.706;23.160;2023-06-22T02:15:06;9.97;;;8.90;;
11048;SDS011;5577;42.706;23.160;2023-06-22T02:17:51;10.83;;;9.43;;
11048;SDS011;5577;42.706;23.160;2023-06-22T02:20:38;10.17;;;9.17;;
11048;SDS011;5577;42.706;23.160;2023-06-22T02:23:22;10.83;;;9.63;;
11048;SDS011;5577;42.706;23.160;2023-06-22T02:26:06;10.23;;;9.23;;
11048;SDS011;5577;42.706;23.160;2023-06-22T02:28:50;10.27;;;9.27;;
11048;SDS011;5577;42.706;23.160;2023-06-22T02:31:34;9.87;;;8.97;;
11048;SDS011;5577;42.706;23.160;2023-06-22T02:34:18;11.20;;;8.97;;
11048;SDS011;5577;42.706;23.160;2023-06-22T02:37:03;10.67;;;9.33;;
11048;SDS011;5577;42.706;23.160;2023-06-22T02:39:47;10.27;;;8.87;;
11048;SDS011;5577;42.706;23.160;2023-06-22T02:42:31;13.47;;;9.53;;
11048;SDS011;5577;42.706;23.160;2023-06-22T02:45:15;10.20;;;9.17;;
11048;SDS011;5577;42.706;23.160;2023-06-22T02:47:59;11.17;;;8.63;;
11048;SDS011;5577;42.706;23.160;2023-06-22T02:50:43;10.87;;;9.70;;
11048;SDS011;5577;42.706;23.160;2023-06-22T02:53:27;10.70;;;9.60;;
11048;SDS011;5577;42.706;23.160;2023-06-22T02:56:11;12.03;;;9.63;;
11048;SDS011;5577;42.706;23.160;2023-06-22T02:58:56;11.03;;;9.90;;
11048;SDS011;5577;42.706;23.160;2023-06-22T03:01:44;13.13;;;9.73;;
11048;SDS011;5577;42.706;23.160;2023-06-22T03:04:28;11.70;;;9.60;;
11048;SDS011;5577;42.706;23.160;2023-06-22T03:07:12;12.37;;;10.67;;
11048;SDS011;5577;42.706;23.160;2023-06-22T03:09:56;11.57;;;10.37;;
11048;SDS011;5577;42.706;23.160;2023-06-22T03:12:41;10.73;;;9.40;;
11048;SDS011;5577;42.706;23.160;2023-06-22T03:15:26;10.50;;;9.40;;
11048;SDS011;5577;42.706;23.160;2023-06-22T03:18:12;11.33;;;10.13;;
11048;SDS011;5577;42.706;23.160;2023-06-22T03:20:56;11.83;;;9.97;;
11048;SDS011;5577;42.706;23.160;2023-06-22T03:23:41;11.80;;;10.33;;
11048;SDS011;5577;42.706;23.160;2023-06-22T03:26:25;10.53;;;9.53;;
11048;SDS011;5577;42.706;23.160;2023-06-22T03:29:10;10.93;;;9.83;;
11048;SDS011;5577;42.706;23.160;2023-06-22T03:31:54;13.53;;;9.90;;
11048;SDS011;5577;42.706;23.160;2023-06-22T03:34:38;12.20;;;10.33;;
11048;SDS011;5577;42.706;23.160;2023-06-22T03:37:22;12.43;;;11.10;;
11048;SDS011;5577;42.706;23.160;2023-06-22T03:40:06;12.97;;;10.83;;
11048;SDS011;5577;42.706;23.160;2023-06-22T03:42:51;10.60;;;9.50;;
11048;SDS011;5577;42.706;23.160;2023-06-22T03:45:35;13.73;;;9.90;;
11048;SDS011;5577;42.706;23.160;2023-06-22T03:48:19;10.57;;;9.60;;
11048;SDS011;5577;42.706;23.160;2023-06-22T03:51:03;10.57;;;9.53;;
11048;SDS011;5577;42.706;23.160;2023-06-22T03:53:47;12.47;;;10.20;;
11048;SDS011;5577;42.706;23.160;2023-06-22T03:56:31;10.57;;;9.40;;
11048;SDS011;5577;42.706;23.160;2023-06-22T03:59:15;10.57;;;9.47;;
11048;SDS011;5577;42.706;23.160;2023-06-22T04:01:59;11.00;;;9.90;;
11048;SDS011;5577;42.706;23.160;2023-06-22T04:04:43;11.67;;;9.90;;
11048;SDS011;5577;42.706;23.160;2023-06-22T04:07:27;10.87;;;9.80;;
11048;SDS011;5577;42.706;23.160;2023-06-22T04:10:11;10.27;;;9.33;;
11048;SDS011;5577;42.706;23.160;2023-06-22T04:12:55;12.73;;;10.03;;
11048;SDS011;5577;42.706;23.160;2023-06-22T04:15:39;11.33;;;10.20;;
11048;SDS011;5577;42.706;23.160;2023-06-22T04:18:23;11.90;;;10.50;;
11048;SDS011;5577;42.706;23.160;2023-06-22T04:21:07;12.13;;;10.40;;
11048;SDS011;5577;42.706;23.160;2023-06-22T04:23:51;19.83;;;12.20;;
11048;SDS011;5577;42.706;23.160;2023-06-22T04:26:35;13.33;;;11.07;;
11048;SDS011;5577;42.706;23.160;2023-06-22T04:29:21;11.67;;;9.77;;
11048;SDS011;5577;42.706;23.160;2023-06-22T04:32:12;9.43;;;8.43;;
11048;SDS011;5577;42.706;23.160;2023-06-22T04:34:56;9.77;;;8.73;;
11048;SDS011;5577;42.706;23.160;2023-06-22T04:37:40;10.47;;;9.37;;
11048;SDS011;5577;42.706;23.160;2023-06-22T04:40:24;10.70;;;9.60;;
11048;SDS011;5577;42.706;23.160;2023-06-22T04:43:08;10.90;;;9.50;;
11048;SDS011;5577;42.706;23.160;2023-06-22T04:45:53;11.43;;;10.03;;
11048;SDS011;5577;42.706;23.160;2023-06-22T04:48:37;10.97;;;9.87;;
11048;SDS011;5577;42.706;23.160;2023-06-22T04:51:21;11.00;;;10.00;;
11048;SDS011;5577;42.706;23.160;2023-06-22T04:54:05;12.30;;;10.20;;
11048;SDS011;5577;42.706;23.160;2023-06-22T04:56:50;11.13;;;10.07;;
11048;SDS011;5577;42.706;23.160;2023-06-22T04:59:40;12.07;;;10.27;;
11048;SDS011;5577;42.706;23.160;2023-06-22T05:02:26;13.27;;;9.40;;
11048;SDS011;5577;42.706;23.160;2023-06-22T05:05:11;10.77;;;9.63;;
11048;SDS011;5577;42.706;23.160;2023-06-22T05:08:00;11.23;;;10.07;;
11048;SDS011;5577;42.706;23.160;2023-06-22T05:10:45;11.97;;;10.37;;
11048;SDS011;5577;42.706;23.160;2023-06-22T05:13:29;11.13;;;9.77;;
11048;SDS011;5577;42.706;23.160;2023-06-22T05:16:13;10.80;;;9.77;;
11048;SDS011;5577;42.706;23.160;2023-06-22T05:18:57;11.73;;;10.20;;
11048;SDS011;5577;42.706;23.160;2023-06-22T05:21:41;11.20;;;9.97;;
11048;SDS011;5577;42.706;23.160;2023-06-22T05:24:25;12.77;;;10.40;;
11048;SDS011;5577;42.706;23.160;2023-06-22T05:27:09;11.17;;;9.83;;
11048;SDS011;5577;42.706;23.160;2023-06-22T05:29:54;12.40;;;10.90;;
11048;SDS011;5577;42.706;23.160;2023-06-22T05:32:38;11.50;;;10.33;;
11048;SDS011;5577;42.706;23.160;2023-06-22T05:35:22;12.83;;;10.97;;
11048;SDS011;5577;42.706;23.160;2023-06-22T05:38:06;14.93;;;11.37;;
11048;SDS011;5577;42.706;23.160;2023-06-22T05:40:49;14.93;;;11.50;;
11048;SDS011;5577;42.706;23.160;2023-06-22T05:43:33;15.57;;;10.97;;
11048;SDS011;5577;42.706;23.160;2023-06-22T05:46:18;12.57;;;11.30;;
11048;SDS011;5577;42.706;23.160;2023-06-22T05:49:03;12.63;;;11.40;;
11048;SDS011;5577;42.706;23.160;2023-06-22T05:51:47;12.47;;;11.17;;
11048;SDS011;5577;42.706;23.160;2023-06-22T05:54:30;12.83;;;11.20;;
11048;SDS011;5577;42.706;23.160;2023-06-22T05:57:14;12.47;;;11.27;;
11048;SDS011;5577;42.706;23.160;2023-06-22T05:59:58;14.53;;;11.23;;
11048;SDS011;5577;42.706;23.160;2023-06-22T06:02:42;13.07;;;11.87;;
11048;SDS011;5577;42.706;23.160;2023-06-22T06:05:27;17.63;;;12.87;;
11048;SDS011;5577;42.706;23.160;2023-06-22T06:08:10;12.97;;;11.67;;
11048;SDS011;5577;42.706;23.160;2023-06-22T06:10:55;13.57;;;12.27;;
11048;SDS011;5577;42.706;23.160;2023-06-22T06:13:40;13.40;;;12.10;;
11048;SDS011;5577;42.706;23.160;2023-06-22T06:16:24;13.80;;;12.37;;
11048;SDS011;5577;42.706;23.160;2023-06-22T06:19:08;16.03;;;12.87;;
11048;SDS011;5577;42.706;23.160;2023-06-22T06:21:52;13.10;;;11.80;;
11048;SDS011;5577;42.706;23.160;2023-06-22T06:24:35;13.57;;;12.20;;
11048;SDS011;5577;42.706;23.160;2023-06-22T06:27:19;13.87;;;12.43;;
11048;SDS011;5577;42.706;23.160;2023-06-22T06:30:04;13.60;;;12.20;;
11048;SDS011;5577;42.706;23.160;2023-06-22T06:32:49;17.50;;;12.73;;
11048;SDS011;5577;42.706;23.160;2023-06-22T06:35:33;13.50;;;12.20;;
11048;SDS011;5577;42.706;23.160;2023-06-22T06:38:18;14.53;;;13.03;;
11048;SDS011;5577;42.706;23.160;2023-06-22T06:41:01;14.13;;;12.73;;
11048;SDS011;5577;42.706;23.160;2023-06-22T06:43:45;14.70;;;13.20;;
11048;SDS011;5577;42.706;23.160;2023-06-22T06:46:29;15.17;;;13.13;;
11048;SDS011;5577;42.706;23.160;2023-06-22T06:49:13;13.87;;;12.57;;
11048;SDS011;5577;42.706;23.160;2023-06-22T06:51:57;13.93;;;12.63;;
11048;SDS011;5577;42.706;23.160;2023-06-22T06:54:41;14.30;;;13.03;;
11048;SDS011;5577;42.706;23.160;2023-06-22T06:57:25;13.70;;;12.43;;
11048;SDS011;5577;42.706;23.160;2023-06-22T07:00:13;15.67;;;13.20;;
11048;SDS011;5577;42.706;23.160;2023-06-22T07:02:59;16.90;;;13.30;;
11048;SDS011;5577;42.706;23.160;2023-06-22T07:05:43;14.53;;;13.07;;
11048;SDS011;5577;42.706;23.160;2023-06-22T07:08:27;15.07;;;13.40;;
11048;SDS011;5577;42.706;23.160;2023-06-22T07:11:11;16.47;;;13.77;;
11048;SDS011;5577;42.706;23.160;2023-06-22T07:13:55;15.03;;;13.43;;
11048;SDS011;5577;42.706;23.160;2023-06-22T07:16:38;14.83;;;13.27;;
11048;SDS011;5577;42.706;23.160;2023-06-22T07:19:26;15.53;;;14.03;;
11048;SDS011;5577;42.706;23.160;2023-06-22T07:22:13;15.47;;;14.00;;
11048;SDS011;5577;42.706;23.160;2023-06-22T07:24:57;15.67;;;14.07;;
11048;SDS011;5577;42.706;23.160;2023-06-22T07:27:46;15.87;;;13.90;;
11048;SDS011;5577;42.706;23.160;2023-06-22T07:30:40;15.63;;;14.03;;
11048;SDS011;5577;42.706;23.160;2023-06-22T07:33:24;15.47;;;13.97;;
11048;SDS011;5577;42.706;23.160;2023-06-22T07:36:08;15.10;;;13.57;;
11048;SDS011;5577;42.706;23.160;2023-06-22T07:38:52;16.00;;;14.23;;
11048;SDS011;5577;42.706;23.160;2023-06-22T07:41:35;15.27;;;13.60;;
11048;SDS011;5577;42.706;23.160;2023-06-22T07:44:19;15.00;;;13.60;;
11048;SDS011;5577;42.706;23.160;2023-06-22T07:47:03;15.17;;;13.57;;
11048;SDS011;5577;42.706;23.160;2023-06-22T07:49:47;15.27;;;13.87;;
11048;SDS011;5577;42.706;23.160;2023-06-22T07:52:31;15.63;;;14.13;;
11048;SDS011;5577;42.706;23.160;2023-06-22T07:55:16;14.70;;;13.23;;
11048;SDS011;5577;42.706;23.160;2023-06-22T07:57:59;15.13;;;13.70;;
11048;SDS011;5577;42.706;23.160;2023-06-22T08:00:43;16.30;;;14.53;;
11048;SDS011;5577;42.706;23.160;2023-06-22T08:03:27;14.80;;;13.40;;
11048;SDS011;5577;42.706;23.160;2023-06-22T08:06:11;14.80;;;13.30;;
11048;SDS011;5577;42.706;23.160;2023-06-22T08:08:55;13.53;;;12.33;;
11048;SDS011;5577;42.706;23.160;2023-06-22T08:11:40;14.03;;;12.73;;
11048;SDS011;5577;42.706;23.160;2023-06-22T08:14:29;14.43;;;13.10;;
11048;SDS011;5577;42.706;23.160;2023-06-22T08:17:13;13.57;;;12.37;;
11048;SDS011;5577;42.706;23.160;2023-06-22T08:19:57;14.63;;;12.47;;
11048;SDS011;5577;42.706;23.160;2023-06-22T08:22:42;13.30;;;12.00;;
11048;SDS011;5577;42.706;23.160;2023-06-22T08:25:26;14.03;;;12.77;;
11048;SDS011;5577;42.706;23.160;2023-06-22T08:28:10;14.43;;;13.03;;
11048;SDS011;5577;42.706;23.160;2023-06-22T08:30:54;13.67;;;12.37;;
11048;SDS011;5577;42.706;23.160;2023-06-22T08:33:39;13.47;;;12.17;;
11048;SDS011;5577;42.706;23.160;2023-06-22T08:36:23;14.10;;;12.70;;
11048;SDS011;5577;42.706;23.160;2023-06-22T08:39:07;13.70;;;12.50;;
11048;SDS011;5577;42.706;23.160;2023-06-22T08:41:51;14.17;;;12.67;;
11048;SDS011;5577;42.706;23.160;2023-06-22T08:44:35;13.87;;;12.50;;
11048;SDS011;5577;42.706;23.160;2023-06-22T08:47:19;13.03;;;11.73;;
11048;SDS011;5577;42.706;23.160;2023-06-22T08:50:04;12.87;;;11.77;;
11048;SDS011;5577;42.706;23.160;2023-06-22T08:52:50;12.20;;;11.10;;
11048;SDS011;5577;42.706;23.160;2023-06-22T08:55:34;12.87;;;11.67;;
11048;SDS011;5577;42.706;23.160;2023-06-22T08:58:18;11.20;;;10.23;;
11048;SDS011;5577;42.706;23.160;2023-06-22T09:01:03;11.37;;;10.27;;
11048;SDS011;5577;42.706;23.160;2023-06-22T09:03:48;11.93;;;10.90;;
11048;SDS011;5577;42.706;23.160;2023-06-22T09:06:39;11.43;;;10.40;;
11048;SDS011;5577;42.706;23.160;2023-06-22T09:09:28;12.37;;;10.90;;
11048;SDS011;5577;42.706;23.160;2023-06-22T09:12:12;11.13;;;10.17;;
11048;SDS011;5577;42.706;23.160;2023-06-22T09:14:55;10.73;;;9.73;;
11048;SDS011;5577;42.706;23.160;2023-06-22T09:17:40;10.97;;;9.87;;
11048;SDS011;5577;42.706;23.160;2023-06-22T09:20:24;11.20;;;10.07;;
11048;SDS011;5577;42.706;23.160;2023-06-22T09:23:08;10.77;;;9.87;;
11048;SDS011;5577;42.706;23.160;2023-06-22T09:25:52;11.40;;;9.93;;
11048;SDS011;5577;42.706;23.160;2023-06-22T09:28:36;10.73;;;9.77;;
11048;SDS011;5577;42.706;23.160;2023-06-22T09:31:19;10.70;;;9.70;;
11048;SDS011;5577;42.706;23.160;2023-06-22T09:34:09;9.83;;;9.03;;
11048;SDS011;5577;42.706;23.160;2023-06-22T09:36:53;10.27;;;9.37;;
11048;SDS011;5577;42.706;23.160;2023-06-22T09:39:37;14.77;;;10.13;;
11048;SDS011;5577;42.706;23.160;2023-06-22T09:42:21;11.17;;;9.93;;
11048;SDS011;5577;42.706;23.160;2023-06-22T09:45:05;11.40;;;10.20;;
11048;SDS011;5577;42.706;23.160;2023-06-22T09:47:50;10.80;;;9.70;;
11048;SDS011;5577;42.706;23.160;2023-06-22T09:50:33;10.30;;;9.47;;
11048;SDS011;5577;42.706;23.160;2023-06-22T09:53:17;12.63;;;10.33;;
11048;SDS011;5577;42.706;23.160;2023-06-22T09:56:01;10.27;;;9.47;;
11048;SDS011;5577;42.706;23.160;2023-06-22T09:58:46;10.73;;;9.83;;
11048;SDS011;5577;42.706;23.160;2023-06-22T10:01:30;10.33;;;9.43;;
11048;SDS011;5577;42.706;23.160;2023-06-22T10:04:14;11.03;;;9.93;;
11048;SDS011;5577;42.706;23.160;2023-06-22T10:06:58;11.03;;;10.03;;
11048;SDS011;5577;42.706;23.160;2023-06-22T10:09:42;10.40;;;9.50;;
11048;SDS011;5577;42.706;23.160;2023-06-22T10:12:27;11.20;;;10.17;;
11048;SDS011;5577;42.706;23.160;2023-06-22T10:15:11;10.80;;;9.90;;
11048;SDS011;5577;42.706;23.160;2023-06-22T10:17:55;10.87;;;9.87;;
11048;SDS011;5577;42.706;23.160;2023-06-22T10:20:39;10.17;;;9.20;;
11048;SDS011;5577;42.706;23.160;2023-06-22T10:23:23;11.20;;;10.17;;
11048;SDS011;5577;42.706;23.160;2023-06-22T10:26:07;10.27;;;9.37;;
11048;SDS011;5577;42.706;23.160;2023-06-22T10:28:51;10.97;;;9.90;;
11048;SDS011;5577;42.706;23.160;2023-06-22T10:31:35;11.03;;;10.00;;
11048;SDS011;5577;42.706;23.160;2023-06-22T10:34:19;11.03;;;10.03;;
11048;SDS011;5577;42.706;23.160;2023-06-22T10:37:03;10.87;;;9.93;;
11048;SDS011;5577;42.706;23.160;2023-06-22T10:39:47;11.40;;;10.23;;
11048;SDS011;5577;42.706;23.160;2023-06-22T10:42:31;10.70;;;9.80;;
11048;SDS011;5577;42.706;23.160;2023-06-22T10:45:15;10.47;;;9.57;;
11048;SDS011;5577;42.706;23.160;2023-06-22T10:47:59;10.50;;;9.40;;
11048;SDS011;5577;42.706;23.160;2023-06-22T10:50:43;10.43;;;9.53;;
11048;SDS011;5577;42.706;23.160;2023-06-22T10:53:27;49.93;;;11.97;;
11048;SDS011;5577;42.706;23.160;2023-06-22T10:56:11;10.10;;;9.03;;
11048;SDS011;5577;42.706;23.160;2023-06-22T10:58:55;10.70;;;9.50;;
11048;SDS011;5577;42.706;23.160;2023-06-22T11:01:39;11.37;;;9.07;;
11048;SDS011;5577;42.706;23.160;2023-06-22T11:04:23;12.90;;;9.50;;
11048;SDS011;5577;42.706;23.160;2023-06-22T11:07:07;200.93;;;17.27;;
11048;SDS011;5577;42.706;23.160;2023-06-22T11:09:51;9.97;;;9.17;;
11048;SDS011;5577;42.706;23.160;2023-06-22T11:12:35;10.70;;;9.70;;
11048;SDS011;5577;42.706;23.160;2023-06-22T11:15:18;10.50;;;9.47;;
11048;SDS011;5577;42.706;23.160;2023-06-22T11:18:02;10.27;;;9.38;;
11048;SDS011;5577;42.706;23.160;2023-06-22T11:20:48;19.70;;;10.77;;
11048;SDS011;5577;42.706;23.160;2023-06-22T11:23:33;10.35;;;9.45;;
11048;SDS011;5577;42.706;23.160;2023-06-22T11:26:16;9.70;;;8.90;;
11048;SDS011;5577;42.706;23.160;2023-06-22T11:29:00;31.98;;;11.05;;
11048;SDS011;5577;42.706;23.160;2023-06-22T11:31:49;14.00;;;9.30;;
11048;SDS011;5577;42.706;23.160;2023-06-22T11:34:32;65.22;;;13.07;;
11048;SDS011;5577;42.706;23.160;2023-06-22T11:37:16;10.32;;;9.43;;
11048;SDS011;5577;42.706;23.160;2023-06-22T11:40:00;10.18;;;9.20;;
11048;SDS011;5577;42.706;23.160;2023-06-22T11:42:46;9.70;;;8.80;;
11048;SDS011;5577;42.706;23.160;2023-06-22T11:45:30;9.75;;;8.93;;
11048;SDS011;5577;42.706;23.160;2023-06-22T11:48:14;10.43;;;9.52;;
11048;SDS011;5577;42.706;23.160;2023-06-22T11:50:58;9.60;;;8.77;;
11048;SDS011;5577;42.706;23.160;2023-06-22T11:53:42;9.85;;;8.95;;
11048;SDS011;5577;42.706;23.160;2023-06-22T11:56:26;11.03;;;9.43;;
11048;SDS011;5577;42.706;23.160;2023-06-22T11:59:11;10.10;;;9.20;;
11048;SDS011;5577;42.706;23.160;2023-06-22T12:01:55;10.00;;;9.00;;
11048;SDS011;5577;42.706;23.160;2023-06-22T12:04:42;9.33;;;8.53;;
11048;SDS011;5577;42.706;23.160;2023-06-22T12:07:27;9.93;;;9.03;;
11048;SDS011;5577;42.706;23.160;2023-06-22T12:10:11;10.23;;;9.43;;
11048;SDS011;5577;42.706;23.160;2023-06-22T12:12:55;11.03;;;10.00;;
11048;SDS011;5577;42.706;23.160;2023-06-22T12:15:39;11.67;;;9.40;;
11048;SDS011;5577;42.706;23.160;2023-06-22T12:18:22;12.17;;;10.63;;
11048;SDS011;5577;42.706;23.160;2023-06-22T12:21:06;14.37;;;12.83;;
11048;SDS011;5577;42.706;23.160;2023-06-22T12:23:51;17.13;;;10.70;;
11048;SDS011;5577;42.706;23.160;2023-06-22T12:26:34;11.70;;;8.13;;
11048;SDS011;5577;42.706;23.160;2023-06-22T12:29:18;13.80;;;8.97;;
11048;SDS011;5577;42.706;23.160;2023-06-22T12:32:02;15.43;;;9.33;;
11048;SDS011;5577;42.706;23.160;2023-06-22T12:34:47;19.47;;;9.10;;
11048;SDS011;5577;42.706;23.160;2023-06-22T12:37:31;17.53;;;9.13;;
11048;SDS011;5577;42.706;23.160;2023-06-22T12:40:16;12.30;;;8.03;;
11048;SDS011;5577;42.706;23.160;2023-06-22T12:43:00;15.00;;;7.17;;
11048;SDS011;5577;42.706;23.160;2023-06-22T12:45:45;9.40;;;7.13;;
11048;SDS011;5577;42.706;23.160;2023-06-22T12:48:29;8.27;;;6.20;;
11048;SDS011;5577;42.706;23.160;2023-06-22T12:51:19;12.17;;;7.27;;
11048;SDS011;5577;42.706;23.160;2023-06-22T12:54:04;13.57;;;7.47;;
11048;SDS011;5577;42.706;23.160;2023-06-22T12:56:49;14.97;;;7.90;;
11048;SDS011;5577;42.706;23.160;2023-06-22T12:59:34;14.87;;;7.97;;
11048;SDS011;5577;42.706;23.160;2023-06-22T13:02:18;17.87;;;8.53;;
11048;SDS011;5577;42.706;23.160;2023-06-22T13:05:02;13.00;;;8.90;;
11048;SDS011;5577;42.706;23.160;2023-06-22T13:07:46;10.33;;;9.10;;
11048;SDS011;5577;42.706;23.160;2023-06-22T13:10:30;10.80;;;9.33;;
11048;SDS011;5577;42.706;23.160;2023-06-22T13:13:14;14.13;;;10.37;;
11048;SDS011;5577;42.706;23.160;2023-06-22T13:15:58;11.23;;;9.80;;
11048;SDS011;5577;42.706;23.160;2023-06-22T13:18:41;14.50;;;10.07;;
11048;SDS011;5577;42.706;23.160;2023-06-22T13:21:25;14.07;;;10.47;;
11048;SDS011;5577;42.706;23.160;2023-06-22T13:24:09;16.10;;;11.93;;
11048;SDS011;5577;42.706;23.160;2023-06-22T13:26:53;17.27;;;11.67;;
11048;SDS011;5577;42.706;23.160;2023-06-22T13:29:38;14.87;;;11.57;;
11048;SDS011;5577;42.706;23.160;2023-06-22T13:32:22;14.27;;;11.50;;
11048;SDS011;5577;42.706;23.160;2023-06-22T13:35:06;12.60;;;11.30;;
11048;SDS011;5577;42.706;23.160;2023-06-22T13:37:51;13.30;;;11.53;;
11048;SDS011;5577;42.706;23.160;2023-06-22T13:40:35;15.50;;;11.50;;
11048;SDS011;5577;42.706;23.160;2023-06-22T13:43:21;20.80;;;11.47;;
11048;SDS011;5577;42.706;23.160;2023-06-22T13:46:05;17.60;;;11.90;;
11048;SDS011;5577;42.706;23.160;2023-06-22T13:48:49;13.57;;;12.17;;
11048;SDS011;5577;42.706;23.160;2023-06-22T13:51:33;13.80;;;11.87;;
11048;SDS011;5577;42.706;23.160;2023-06-22T13:54:17;16.90;;;12.63;;
11048;SDS011;5577;42.706;23.160;2023-06-22T13:57:01;16.70;;;12.23;;
11048;SDS011;5577;42.706;23.160;2023-06-22T13:59:44;14.70;;;12.27;;
11048;SDS011;5577;42.706;23.160;2023-06-22T14:02:29;15.53;;;10.63;;
11048;SDS011;5577;42.706;23.160;2023-06-22T14:05:13;14.27;;;11.27;;
11048;SDS011;5577;42.706;23.160;2023-06-22T14:07:57;13.57;;;11.23;;
11048;SDS011;5577;42.706;23.160;2023-06-22T14:10:41;16.20;;;11.80;;
11048;SDS011;5577;42.706;23.160;2023-06-22T14:13:25;12.53;;;11.23;;
11048;SDS011;5577;42.706;23.160;2023-06-22T14:16:09;14.17;;;12.00;;
11048;SDS011;5577;42.706;23.160;2023-06-22T14:18:53;13.63;;;11.60;;
11048;SDS011;5577;42.706;23.160;2023-06-22T14:21:37;13.30;;;11.90;;
11048;SDS011;5577;42.706;23.160;2023-06-22T14:24:21;13.90;;;11.87;;
11048;SDS011;5577;42.706;23.160;2023-06-22T14:27:05;13.90;;;12.50;;
11048;SDS011;5577;42.706;23.160;2023-06-22T14:29:51;13.43;;;12.13;;
11048;SDS011;5577;42.706;23.160;2023-06-22T14:32:35;16.33;;;12.60;;
11048;SDS011;5577;42.706;23.160;2023-06-22T14:35:19;13.83;;;12.27;;
11048;SDS011;5577;42.706;23.160;2023-06-22T14:38:04;15.80;;;12.93;;
11048;SDS011;5577;42.706;23.160;2023-06-22T14:40:48;15.27;;;13.47;;
11048;SDS011;5577;42.706;23.160;2023-06-22T14:43:32;14.67;;;13.20;;
11048;SDS011;5577;42.706;23.160;2023-06-22T14:46:19;16.07;;;14.17;;
11048;SDS011;5577;42.706;23.160;2023-06-22T14:49:03;18.97;;;16.13;;
11048;SDS011;5577;42.706;23.160;2023-06-22T14:51:47;17.47;;;14.10;;
11048;SDS011;5577;42.706;23.160;2023-06-22T14:54:31;16.10;;;14.40;;
11048;SDS011;5577;42.706;23.160;2023-06-22T14:57:15;14.80;;;13.17;;
11048;SDS011;5577;42.706;23.160;2023-06-22T15:00:01;15.10;;;13.50;;
11048;SDS011;5577;42.706;23.160;2023-06-22T15:02:46;14.77;;;13.27;;
11048;SDS011;5577;42.706;23.160;2023-06-22T15:05:30;14.80;;;13.30;;
11048;SDS011;5577;42.706;23.160;2023-06-22T15:08:14;14.87;;;13.37;;
11048;SDS011;5577;42.706;23.160;2023-06-22T15:10:58;14.10;;;12.70;;
11048;SDS011;5577;42.706;23.160;2023-06-22T15:13:44;14.07;;;12.67;;
11048;SDS011;5577;42.706;23.160;2023-06-22T15:16:29;14.00;;;12.70;;
11048;SDS011;5577;42.706;23.160;2023-06-22T15:19:13;13.77;;;12.40;;
11048;SDS011;5577;42.706;23.160;2023-06-22T15:21:57;14.23;;;12.83;;
11048;SDS011;5577;42.706;23.160;2023-06-22T15:24:41;14.33;;;12.93;;
11048;SDS011;5577;42.706;23.160;2023-06-22T15:27:25;15.60;;;11.97;;
11048;SDS011;5577;42.706;23.160;2023-06-22T15:30:09;12.23;;;10.90;;
11048;SDS011;5577;42.706;23.160;2023-06-22T15:32:53;11.60;;;10.37;;
11048;SDS011;5577;42.706;23.160;2023-06-22T15:35:37;14.03;;;11.10;;
11048;SDS011;5577;42.706;23.160;2023-06-22T15:38:21;13.87;;;12.47;;
11048;SDS011;5577;42.706;23.160;2023-06-22T15:41:05;14.70;;;12.40;;
11048;SDS011;5577;42.706;23.160;2023-06-22T15:43:50;14.07;;;11.60;;
11048;SDS011;5577;42.706;23.160;2023-06-22T15:46:34;13.20;;;11.77;;
11048;SDS011;5577;42.706;23.160;2023-06-22T15:49:18;12.60;;;11.27;;
11048;SDS011;5577;42.706;23.160;2023-06-22T15:52:02;11.33;;;9.97;;
11048;SDS011;5577;42.706;23.160;2023-06-22T15:54:46;11.73;;;10.47;;
11048;SDS011;5577;42.706;23.160;2023-06-22T15:57:30;11.30;;;10.10;;
11048;SDS011;5577;42.706;23.160;2023-06-22T16:00:15;13.57;;;10.30;;
11048;SDS011;5577;42.706;23.160;2023-06-22T16:03:00;14.37;;;11.10;;
11048;SDS011;5577;42.706;23.160;2023-06-22T16:05:45;12.60;;;10.60;;
11048;SDS011;5577;42.706;23.160;2023-06-22T16:08:29;12.80;;;11.50;;
11048;SDS011;5577;42.706;23.160;2023-06-22T16:11:14;13.90;;;12.50;;